createdAt,value
2018-12-21T00:00:06.387Z,73.97
2018-12-21T00:02:34.714Z,75.13
2018-12-21T00:05:03.065Z,76.67
2018-12-21T00:07:31.403Z,75.23
2018-12-21T00:10:00.346Z,74.13
2018-12-21T00:12:28.679Z,78.67
2018-12-21T00:14:57.047Z,77.97
2018-12-21T00:17:25.381Z,80.83
2018-12-21T00:19:54.272Z,81.77
2018-12-21T00:22:22.604Z,77.20
2018-12-21T00:24:50.947Z,79.20
2018-12-21T00:27:19.280Z,83.70
2018-12-21T00:29:47.611Z,85.20
2018-12-21T00:32:21.567Z,82.70
2018-12-21T00:34:55.863Z,83.30
2018-12-21T00:37:29.916Z,82.87
2018-12-21T00:40:03.928Z,83.33
2018-12-21T00:42:34.508Z,84.97
2018-12-21T00:45:06.804Z,86.63
2018-12-21T00:47:35.227Z,88.93
2018-12-21T00:50:03.583Z,92.83
2018-12-21T00:52:31.901Z,93.47
2018-12-21T00:55:02.269Z,89.03
2018-12-21T00:57:29.616Z,91.60
2018-12-21T00:59:57.964Z,86.00
2018-12-21T01:02:26.384Z,91.63
2018-12-21T01:04:54.639Z,89.10
2018-12-21T01:07:24.142Z,92.83
2018-12-21T01:09:52.475Z,90.30
2018-12-21T01:12:21.170Z,93.80
2018-12-21T01:14:49.493Z,84.93
2018-12-21T01:17:17.845Z,79.93
2018-12-21T01:19:46.178Z,84.63
2018-12-21T01:22:14.518Z,88.57
2018-12-21T01:24:42.858Z,86.67
2018-12-21T01:27:11.188Z,79.03
2018-12-21T01:29:39.515Z,82.90
2018-12-21T01:32:07.861Z,82.23
2018-12-21T01:34:36.188Z,81.77
2018-12-21T01:37:04.542Z,81.60
2018-12-21T01:39:32.913Z,83.47
2018-12-21T01:42:01.493Z,84.50
2018-12-21T01:44:29.599Z,81.77
2018-12-21T01:46:57.944Z,79.50
2018-12-21T01:49:26.303Z,83.87
2018-12-21T01:51:54.650Z,80.80
2018-12-21T01:54:22.977Z,78.70
2018-12-21T01:56:51.325Z,79.83
2018-12-21T01:59:19.896Z,77.30
2018-12-21T02:01:47.998Z,73.53
2018-12-21T02:04:16.333Z,81.90
2018-12-21T02:06:44.677Z,77.50
2018-12-21T02:09:13.019Z,88.27
2018-12-21T02:11:41.355Z,77.27
2018-12-21T02:14:09.709Z,80.67
2018-12-21T02:16:38.052Z,83.90
2018-12-21T02:19:06.384Z,82.97
2018-12-21T02:21:34.728Z,87.47
2018-12-21T02:24:03.069Z,86.33
2018-12-21T02:26:31.409Z,88.07
2018-12-21T02:28:59.734Z,92.37
2018-12-21T02:31:28.084Z,100.10
2018-12-21T02:33:56.403Z,99.93
2018-12-21T02:36:24.747Z,103.23
2018-12-21T02:38:53.095Z,102.53
2018-12-21T02:41:21.468Z,111.33
2018-12-21T02:43:49.821Z,102.33
2018-12-21T02:46:18.157Z,112.40
2018-12-21T02:48:46.513Z,107.63
2018-12-21T02:51:14.856Z,105.70
2018-12-21T02:53:43.193Z,103.77
2018-12-21T02:56:11.537Z,100.30
2018-12-21T02:58:39.871Z,98.37
2018-12-21T03:01:08.443Z,98.83
2018-12-21T03:03:36.548Z,103.17
2018-12-21T03:06:04.925Z,99.13
2018-12-21T03:08:33.306Z,98.43
2018-12-21T03:11:01.621Z,95.17
2018-12-21T03:13:29.968Z,94.27
2018-12-21T03:15:58.309Z,99.37
2018-12-21T03:18:26.653Z,95.17
2018-12-21T03:20:54.976Z,92.57
2018-12-21T03:23:23.307Z,100.37
2018-12-21T03:25:51.647Z,99.57
2018-12-21T03:28:19.982Z,103.27
2018-12-21T03:30:48.334Z,90.10
2018-12-21T03:33:16.672Z,94.73
2018-12-21T03:35:44.997Z,92.60
2018-12-21T03:38:13.381Z,88.83
2018-12-21T03:40:41.704Z,81.40
2018-12-21T03:43:10.333Z,91.07
2018-12-21T03:45:38.669Z,84.63
2018-12-21T03:48:07.034Z,89.27
2018-12-21T03:50:35.387Z,84.03
2018-12-21T03:53:03.716Z,83.10
2018-12-21T03:55:32.061Z,80.00
2018-12-21T03:58:00.424Z,78.60
2018-12-21T04:00:28.756Z,78.37
2018-12-21T04:02:57.085Z,80.70
2018-12-21T04:05:25.413Z,77.47
2018-12-21T04:07:53.749Z,78.80
2018-12-21T04:10:22.081Z,81.50
2018-12-21T04:12:50.427Z,85.83
2018-12-21T04:15:18.765Z,87.93
2018-12-21T04:17:47.329Z,83.30
2018-12-21T04:20:15.683Z,80.67
2018-12-21T04:22:44.017Z,81.90
2018-12-21T04:25:12.357Z,76.93
2018-12-21T04:27:41.437Z,71.47
2018-12-21T04:30:09.772Z,68.20
2018-12-21T04:32:38.333Z,67.90
2018-12-21T04:35:06.446Z,71.00
2018-12-21T04:37:34.779Z,69.43
2018-12-21T04:40:03.112Z,72.30
2018-12-21T04:42:31.445Z,66.60
2018-12-21T04:45:00.312Z,69.90
2018-12-21T04:47:28.639Z,66.70
2018-12-21T04:49:56.965Z,67.07
2018-12-21T04:52:25.312Z,69.03
2018-12-21T04:54:53.644Z,68.37
2018-12-21T04:57:22.197Z,72.17
2018-12-21T04:59:50.310Z,68.37
2018-12-21T05:02:18.643Z,72.33
2018-12-21T05:04:46.981Z,73.20
2018-12-21T05:07:15.316Z,72.77
2018-12-21T05:09:43.646Z,75.97
2018-12-21T05:12:11.979Z,72.47
2018-12-21T05:14:40.631Z,76.87
2018-12-21T05:17:08.960Z,80.03
2018-12-21T05:19:37.299Z,80.43
2018-12-21T05:22:05.640Z,86.73
2018-12-21T05:24:33.987Z,84.63
2018-12-21T05:27:02.315Z,91.87
2018-12-21T05:29:30.650Z,91.43
2018-12-21T05:31:58.980Z,87.67
2018-12-21T05:34:27.335Z,81.17
2018-12-21T05:36:55.662Z,76.90
2018-12-21T05:39:24.039Z,77.13
2018-12-21T05:41:52.585Z,75.87
2018-12-21T05:44:20.742Z,76.77
2018-12-21T05:46:49.122Z,76.70
2018-12-21T05:49:17.464Z,77.70
2018-12-21T05:51:46.037Z,82.70
2018-12-21T05:54:14.380Z,83.30
2018-12-21T05:56:42.521Z,83.53
2018-12-21T05:59:10.857Z,83.93
2018-12-21T06:01:39.179Z,80.27
2018-12-21T06:04:07.548Z,102.87
2018-12-21T06:06:35.953Z,103.47
2018-12-21T06:09:04.286Z,106.87
2018-12-21T06:11:32.633Z,129.30
2018-12-21T06:14:01.164Z,112.63
2018-12-21T06:16:29.346Z,107.63
2018-12-21T06:18:57.947Z,113.77
2018-12-21T06:21:26.070Z,107.07
2018-12-21T06:23:54.458Z,104.77
2018-12-21T06:26:22.807Z,105.53
2018-12-21T06:28:51.134Z,110.53
2018-12-21T06:31:19.484Z,113.97
2018-12-21T06:33:47.835Z,112.40
2018-12-21T06:36:16.193Z,107.80
2018-12-21T06:38:44.559Z,112.83
2018-12-21T06:41:13.139Z,114.77
2018-12-21T06:43:41.483Z,99.53
2018-12-21T06:46:14.142Z,114.63
2018-12-21T06:48:38.179Z,118.77
2018-12-21T06:51:06.316Z,131.60
2018-12-21T06:53:34.652Z,140.53
2018-12-21T06:56:02.990Z,150.57
2018-12-21T06:58:31.586Z,146.80
2018-12-21T07:01:00.708Z,157.17
2018-12-21T07:03:28.390Z,138.80
2018-12-21T07:05:56.493Z,159.03
2018-12-21T07:08:24.837Z,156.40
2018-12-21T07:10:53.176Z,142.47
2018-12-21T07:13:21.520Z,137.03
2018-12-21T07:15:49.884Z,147.37
2018-12-21T07:18:18.208Z,136.67
2018-12-21T07:20:46.539Z,146.40
2018-12-21T07:23:14.881Z,147.10
2018-12-21T07:25:43.229Z,146.83
2018-12-21T07:28:11.574Z,148.53
2018-12-21T07:30:39.930Z,134.67
2018-12-21T07:33:08.275Z,128.33
2018-12-21T07:35:36.627Z,132.37
2018-12-21T07:38:04.971Z,135.73
2018-12-21T07:40:33.310Z,127.60
2018-12-21T07:43:01.667Z,125.87
2018-12-21T07:45:30.027Z,111.07
2018-12-21T07:47:59.695Z,110.07
2018-12-21T07:50:28.037Z,136.63
2018-12-21T07:52:56.391Z,231.57
2018-12-21T07:55:24.754Z,141.87
2018-12-21T07:57:53.089Z,130.63
2018-12-21T08:00:21.440Z,150.07
2018-12-21T08:02:49.779Z,121.70
2018-12-21T08:05:18.114Z,98.33
2018-12-21T08:07:46.451Z,102.67
2018-12-21T08:10:14.803Z,97.87
2018-12-21T08:12:43.138Z,102.87
2018-12-21T08:15:11.478Z,100.60
2018-12-21T08:17:39.791Z,97.03
2018-12-21T08:20:08.377Z,96.30
2018-12-21T08:22:36.711Z,95.50
2018-12-21T08:25:05.037Z,88.83
2018-12-21T08:27:33.378Z,88.00
2018-12-21T08:30:01.965Z,292.70
2018-12-21T08:32:30.297Z,141.13
2018-12-21T08:34:58.666Z,94.73
2018-12-21T08:37:26.917Z,100.23
2018-12-21T08:39:55.339Z,83.67
2018-12-21T08:42:23.870Z,84.30
2018-12-21T08:44:52.259Z,79.57
2018-12-21T08:47:21.122Z,81.03
2018-12-21T08:49:49.758Z,76.07
2018-12-21T08:52:18.144Z,82.27
2018-12-21T08:54:46.556Z,80.10
2018-12-21T08:57:14.951Z,83.80
2018-12-21T08:59:43.354Z,75.90
2018-12-21T09:02:11.696Z,79.37
2018-12-21T09:04:40.140Z,79.30
2018-12-21T09:07:08.762Z,75.87
2018-12-21T09:09:36.945Z,79.53
2018-12-21T09:12:05.189Z,84.43
2018-12-21T09:14:33.516Z,74.93
2018-12-21T09:17:01.895Z,83.07
2018-12-21T09:19:30.262Z,82.87
2018-12-21T09:21:58.865Z,90.67
2018-12-21T09:24:27.199Z,80.27
2018-12-21T09:26:56.453Z,89.57
2018-12-21T09:29:25.415Z,86.17
2018-12-21T09:31:53.923Z,84.33
2018-12-21T09:34:22.419Z,95.33
2018-12-21T09:36:50.758Z,92.17
2018-12-21T09:39:19.461Z,83.50
2018-12-21T09:41:48.358Z,84.77
2018-12-21T09:44:16.969Z,88.50
2018-12-21T09:46:46.913Z,106.03
2018-12-21T09:49:16.438Z,99.07
2018-12-21T09:51:45.376Z,109.73
2018-12-21T09:54:13.113Z,107.27
2018-12-21T09:56:42.824Z,105.50
2018-12-21T09:59:11.446Z,116.40
2018-12-21T10:01:39.909Z,123.10
2018-12-21T10:04:08.389Z,110.57
2018-12-21T10:06:37.886Z,111.67
2018-12-21T10:09:06.363Z,110.23
2018-12-21T10:11:35.149Z,130.00
2018-12-21T10:14:03.667Z,116.27
2018-12-21T10:16:32.017Z,117.03
2018-12-21T10:19:00.513Z,120.53
2018-12-21T10:21:29.012Z,114.23
2018-12-21T10:44:52.905Z,114.47
2018-12-21T10:47:22.467Z,143.20
2018-12-21T10:49:51.667Z,133.83
2018-12-21T10:52:20.345Z,152.93
2018-12-21T10:54:48.879Z,265.07
2018-12-21T10:57:17.448Z,174.37
2018-12-21T10:59:45.866Z,165.97
2018-12-21T11:02:14.215Z,152.90
2018-12-21T11:04:44.372Z,149.70
2018-12-21T11:07:12.965Z,140.17
2018-12-21T11:09:41.656Z,138.40
2018-12-21T11:12:10.012Z,133.77
2018-12-21T11:14:38.582Z,140.13
2018-12-21T11:17:08.208Z,133.70
2018-12-21T11:19:36.457Z,134.23
2018-12-21T11:22:05.900Z,139.77
2018-12-21T11:24:35.534Z,138.57
2018-12-21T11:27:02.734Z,148.70
2018-12-21T11:29:31.943Z,151.87
2018-12-21T11:32:00.410Z,146.37
2018-12-21T11:34:28.673Z,154.27
2018-12-21T11:36:57.021Z,143.27
2018-12-21T11:39:25.724Z,241.60
2018-12-21T11:41:54.065Z,279.07
2018-12-21T11:44:22.613Z,243.70
2018-12-21T11:46:51.029Z,175.57
2018-12-21T11:49:19.541Z,143.70
2018-12-21T11:51:50.510Z,142.50
2018-12-21T11:54:19.115Z,131.20
2018-12-21T11:56:47.570Z,126.23
2018-12-21T11:59:17.519Z,130.47
2018-12-21T12:01:45.968Z,134.27
2018-12-21T12:04:14.404Z,131.97
2018-12-21T12:06:42.881Z,155.53
2018-12-21T12:09:13.090Z,168.83
2018-12-21T12:11:40.260Z,102.67
2018-12-21T12:14:08.698Z,98.23
2018-12-21T12:16:38.100Z,95.00
2018-12-21T12:19:06.665Z,47.33
2018-12-21T12:21:35.547Z,52.47
2018-12-21T12:24:04.600Z,51.33
2018-12-21T12:26:33.991Z,47.77
2018-12-21T12:29:01.477Z,67.10
2018-12-21T12:31:29.806Z,166.70
2018-12-21T12:33:58.929Z,197.67
2018-12-21T12:36:27.267Z,103.13
2018-12-21T12:38:56.243Z,55.40
2018-12-21T12:41:24.518Z,55.93
2018-12-21T12:43:53.270Z,70.80
2018-12-21T12:46:21.632Z,57.03
2018-12-21T12:48:51.571Z,51.80
2018-12-21T12:51:20.435Z,55.57
2018-12-21T12:53:48.881Z,59.10
2018-12-21T12:56:18.217Z,62.93
2018-12-21T12:58:46.987Z,71.80
2018-12-21T13:01:15.790Z,69.27
2018-12-21T13:03:44.112Z,74.87
2018-12-21T13:06:12.538Z,68.83
2018-12-21T13:08:41.406Z,72.63
2018-12-21T13:11:10.260Z,59.97
2018-12-21T13:13:38.534Z,56.00
2018-12-21T13:16:08.030Z,49.70
2018-12-21T13:18:36.699Z,48.27
2018-12-21T13:21:05.128Z,55.17
2018-12-21T13:23:34.260Z,52.93
2018-12-21T13:26:02.615Z,54.97
2018-12-21T13:28:31.035Z,57.17
2018-12-21T13:30:59.720Z,55.13
2018-12-21T13:33:27.876Z,60.97
2018-12-21T13:35:56.194Z,61.27
2018-12-21T13:38:24.558Z,65.60
2018-12-21T13:40:53.117Z,64.50
2018-12-21T13:43:21.230Z,62.37
2018-12-21T13:45:49.578Z,101.00
2018-12-21T13:48:17.920Z,150.03
2018-12-21T13:50:46.315Z,82.20
2018-12-21T13:53:14.662Z,70.10
2018-12-21T13:55:42.990Z,102.40
2018-12-21T13:58:11.368Z,92.87
2018-12-21T14:00:40.497Z,94.87
2018-12-21T14:03:08.944Z,93.60
2018-12-21T14:05:37.215Z,80.87
2018-12-21T14:08:05.588Z,80.07
2018-12-21T14:10:33.926Z,59.60
2018-12-21T14:13:02.802Z,53.17
2018-12-21T14:15:31.419Z,57.57
2018-12-21T14:17:59.542Z,57.33
2018-12-21T14:20:27.882Z,62.10
2018-12-21T14:22:56.463Z,55.33
2018-12-21T14:25:28.784Z,66.53
2018-12-21T14:27:54.064Z,68.70
2018-12-21T14:30:22.408Z,65.97
2018-12-21T14:32:51.015Z,66.20
2018-12-21T14:35:19.354Z,69.50
2018-12-21T14:37:47.917Z,68.03
2018-12-21T14:40:16.419Z,78.77
2018-12-21T14:42:45.374Z,69.57
2018-12-21T14:45:13.722Z,64.80
2018-12-21T14:47:42.083Z,72.07
2018-12-21T14:50:10.423Z,74.50
2018-12-21T14:52:38.807Z,83.43
2018-12-21T14:55:07.239Z,74.53
2018-12-21T14:57:35.577Z,78.00
2018-12-21T15:00:03.932Z,86.07
2018-12-21T15:02:32.318Z,103.30
2018-12-21T15:05:00.786Z,127.53
2018-12-21T15:07:29.165Z,288.77
2018-12-21T15:09:58.267Z,249.03
2018-12-21T15:12:26.618Z,132.20
2018-12-21T15:14:55.001Z,103.63
2018-12-21T15:17:23.405Z,95.40
2018-12-21T15:19:51.768Z,104.37
2018-12-21T15:22:20.105Z,108.70
2018-12-21T15:24:48.469Z,110.07
2018-12-21T15:27:16.829Z,104.27
2018-12-21T15:29:45.511Z,102.93
2018-12-21T15:32:13.855Z,98.97
2018-12-21T15:34:42.416Z,92.57
2018-12-21T15:37:10.526Z,83.17
2018-12-21T15:39:38.856Z,71.20
2018-12-21T15:42:07.193Z,62.13
2018-12-21T15:44:35.541Z,56.43
2018-12-21T15:47:08.952Z,56.43
2018-12-21T15:49:32.242Z,49.93
2018-12-21T15:52:00.567Z,45.73
2018-12-21T15:54:28.919Z,47.87
2018-12-21T15:56:57.277Z,63.47
2018-12-21T15:59:26.695Z,69.37
2018-12-21T16:01:55.850Z,66.33
2018-12-21T16:04:24.244Z,72.40
2018-12-21T16:06:53.606Z,67.23
2018-12-21T16:09:21.772Z,175.63
2018-12-21T16:11:50.450Z,74.80
2018-12-21T16:14:18.795Z,62.63
2018-12-21T16:16:47.711Z,63.33
2018-12-21T16:19:16.561Z,63.77
2018-12-21T16:21:44.921Z,75.23
2018-12-21T16:24:13.262Z,71.07
2018-12-21T16:26:41.613Z,67.07
2018-12-21T16:29:09.989Z,101.10
2018-12-21T16:31:38.432Z,100.33
2018-12-21T16:34:07.348Z,112.90
2018-12-21T16:36:35.480Z,89.10
2018-12-21T16:39:03.877Z,82.20
2018-12-21T16:41:32.271Z,72.73
2018-12-21T16:44:00.682Z,58.80
2018-12-21T16:46:29.110Z,60.17
2018-12-21T16:48:57.558Z,54.43
2018-12-21T16:51:25.890Z,54.97
2018-12-21T16:53:54.227Z,56.90
2018-12-21T16:56:22.581Z,43.87
2018-12-21T16:58:50.958Z,47.00
2018-12-21T17:01:19.281Z,42.73
2018-12-21T17:03:47.622Z,42.77
2018-12-21T17:06:16.519Z,39.30
2018-12-21T17:08:44.886Z,37.77
2018-12-21T17:11:14.111Z,38.40
2018-12-21T17:13:41.585Z,37.87
2018-12-21T17:16:09.932Z,37.33
2018-12-21T17:18:38.279Z,34.33
2018-12-21T17:21:06.671Z,37.80
2018-12-21T17:23:35.007Z,39.90
2018-12-21T17:26:03.353Z,44.23
2018-12-21T17:28:31.705Z,49.07
2018-12-21T17:31:00.301Z,47.20
2018-12-21T17:33:28.420Z,50.33
2018-12-21T17:35:56.776Z,52.37
2018-12-21T17:38:26.084Z,50.20
2018-12-21T17:40:54.205Z,47.70
2018-12-21T17:43:22.570Z,49.27
2018-12-21T17:45:50.906Z,52.27
2018-12-21T17:48:19.319Z,48.73
2018-12-21T17:50:47.659Z,48.67
2018-12-21T17:53:16.131Z,45.60
2018-12-21T17:55:44.939Z,47.03
2018-12-21T17:58:14.080Z,50.33
2018-12-21T18:00:43.322Z,56.93
2018-12-21T18:03:11.560Z,65.27
2018-12-21T18:05:40.040Z,131.33
2018-12-21T18:08:08.472Z,53.67
2018-12-21T18:10:37.744Z,58.00
2018-12-21T18:13:06.162Z,58.90
2018-12-21T18:15:34.621Z,64.77
2018-12-21T18:18:02.961Z,69.93
2018-12-21T18:20:31.580Z,67.57
2018-12-21T18:22:59.687Z,72.13
2018-12-21T18:25:28.035Z,68.53
2018-12-21T18:27:56.718Z,65.40
2018-12-21T18:30:24.816Z,72.73
2018-12-21T18:32:53.286Z,289.30
2018-12-21T18:35:21.647Z,91.17
2018-12-21T18:37:49.986Z,65.07
2018-12-21T18:40:18.331Z,92.17
2018-12-21T18:42:46.676Z,75.10
2018-12-21T18:45:15.118Z,78.47
2018-12-21T18:47:43.475Z,83.10
2018-12-21T18:50:11.807Z,92.23
2018-12-21T18:52:40.172Z,79.47
2018-12-21T18:55:09.027Z,81.40
2018-12-21T18:57:37.369Z,77.87
2018-12-21T19:00:05.987Z,75.33
2018-12-21T19:02:34.113Z,85.47
2018-12-21T19:05:02.461Z,93.97
2018-12-21T19:07:30.804Z,94.07
2018-12-21T19:09:59.151Z,100.70
2018-12-21T19:12:27.519Z,101.27
2018-12-21T19:14:55.868Z,96.87
2018-12-21T19:17:24.435Z,93.97
2018-12-21T19:19:52.570Z,86.23
2018-12-21T19:22:20.923Z,87.63
2018-12-21T19:24:49.278Z,86.37
2018-12-21T19:27:17.673Z,84.13
2018-12-21T19:29:47.038Z,87.80
2018-12-21T19:32:25.569Z,85.30
2018-12-21T19:34:54.302Z,83.67
2018-12-21T19:37:22.931Z,91.27
2018-12-21T19:39:51.075Z,87.63
2018-12-21T19:42:19.417Z,89.90
2018-12-21T19:44:47.799Z,91.17
2018-12-21T19:47:16.148Z,94.33
2018-12-21T19:49:44.481Z,82.70
2018-12-21T19:52:12.866Z,80.40
2018-12-21T19:54:41.193Z,90.90
2018-12-21T19:59:45.416Z,81.37
2018-12-21T20:02:13.753Z,84.27
2018-12-21T20:04:42.838Z,78.93
2018-12-21T20:07:11.010Z,76.93
2018-12-21T20:09:39.379Z,74.20
2018-12-21T20:12:07.728Z,80.83
2018-12-21T20:14:36.090Z,78.77
2018-12-21T20:17:04.456Z,75.70
2018-12-21T20:19:32.803Z,74.83
2018-12-21T20:22:03.216Z,67.73
2018-12-21T20:24:31.561Z,73.10
2018-12-21T20:26:59.924Z,68.17
2018-12-21T20:29:30.206Z,71.00
2018-12-21T20:31:58.835Z,72.43
2018-12-21T20:34:27.477Z,70.17
2018-12-21T20:36:55.846Z,67.77
2018-12-21T20:39:24.188Z,65.13
2018-12-21T20:41:52.526Z,60.77
2018-12-21T20:44:26.741Z,65.40
2018-12-21T20:46:55.056Z,63.07
2018-12-21T20:49:23.411Z,72.03
2018-12-21T20:51:51.835Z,66.07
2018-12-21T20:54:20.201Z,64.87
2018-12-21T20:56:48.551Z,69.67
2018-12-21T20:59:16.893Z,63.07
2018-12-21T21:01:45.229Z,65.57
2018-12-21T21:04:13.800Z,65.87
2018-12-21T21:06:41.971Z,72.07
2018-12-21T21:09:10.330Z,64.80
2018-12-21T21:11:39.633Z,67.63
2018-12-21T21:14:08.201Z,65.67
2018-12-21T21:16:36.346Z,66.90
2018-12-21T21:19:04.852Z,64.40
2018-12-21T21:21:33.180Z,77.97
2018-12-21T21:24:03.973Z,73.43
2018-12-21T21:26:33.544Z,62.40
2018-12-21T21:29:03.831Z,64.30
2018-12-21T21:31:34.057Z,63.47
2018-12-21T21:34:02.437Z,64.83
2018-12-21T21:36:30.835Z,65.73
2018-12-21T21:39:00.899Z,71.17
2018-12-21T21:41:27.597Z,62.73
2018-12-21T21:43:55.945Z,65.50
2018-12-21T21:46:24.290Z,64.47
2018-12-21T23:01:03.050Z,92.33
2018-12-21T23:03:31.170Z,86.90
2018-12-21T23:05:59.497Z,85.97
2018-12-21T23:08:27.867Z,77.33
2018-12-21T23:10:56.180Z,76.13
2018-12-21T23:13:24.525Z,72.10
2018-12-21T23:15:52.857Z,73.53
2018-12-21T23:18:21.206Z,77.33
2018-12-21T23:20:49.543Z,65.57
2018-12-21T23:23:17.889Z,69.50
2018-12-21T23:25:46.226Z,67.77
2018-12-21T23:28:14.557Z,67.23
2018-12-21T23:30:42.895Z,63.10
2018-12-21T23:33:11.220Z,63.10
2018-12-21T23:35:39.559Z,65.13
2018-12-21T23:38:08.180Z,64.43
2018-12-21T23:40:36.589Z,61.10
2018-12-21T23:43:04.837Z,62.80
2018-12-21T23:45:33.168Z,64.73
2018-12-21T23:48:01.494Z,62.20
2018-12-21T23:50:29.837Z,66.80
2018-12-21T23:52:58.160Z,63.53
2018-12-21T23:55:26.486Z,58.43
2018-12-21T23:57:54.835Z,63.40
